createdAt,value
2018-04-29T00:00:53.066Z,12.61
2018-04-29T00:01:53.063Z,12.58
2018-04-29T00:02:53.059Z,12.49
2018-04-29T00:03:53.055Z,12.44
2018-04-29T00:04:53.045Z,12.48
2018-04-29T00:05:53.044Z,12.54
2018-04-29T00:06:53.037Z,12.49
2018-04-29T00:07:53.033Z,12.49
2018-04-29T00:08:53.029Z,12.44
2018-04-29T00:09:53.023Z,12.40
2018-04-29T00:10:53.020Z,12.43
2018-04-29T00:11:53.019Z,12.44
2018-04-29T00:12:53.010Z,12.31
2018-04-29T00:13:53.006Z,12.33
2018-04-29T00:14:53.008Z,12.37
2018-04-29T00:15:53.003Z,12.33
2018-04-29T00:16:52.992Z,12.22
2018-04-29T00:17:52.991Z,12.26
2018-04-29T00:18:52.987Z,12.18
2018-04-29T00:19:52.979Z,12.23
2018-04-29T00:20:52.979Z,12.22
2018-04-29T00:21:52.981Z,12.15
2018-04-29T00:22:52.966Z,12.11
2018-04-29T00:23:52.962Z,12.00
2018-04-29T00:24:52.958Z,12.03
2018-04-29T00:25:52.953Z,12.07
2018-04-29T00:26:52.949Z,11.88
2018-04-29T00:27:52.944Z,12.04
2018-04-29T00:28:52.939Z,12.03
2018-04-29T00:29:52.934Z,12.04
2018-04-29T00:30:52.929Z,12.05
2018-04-29T00:31:52.925Z,11.93
2018-04-29T00:32:52.963Z,11.94
2018-04-29T00:33:52.919Z,11.97
2018-04-29T00:34:52.916Z,11.94
2018-04-29T00:35:52.910Z,11.81
2018-04-29T00:36:52.901Z,11.69
2018-04-29T00:37:52.896Z,11.72
2018-04-29T00:38:52.892Z,11.70
2018-04-29T00:39:52.889Z,11.72
2018-04-29T00:40:52.882Z,11.67
2018-04-29T00:41:52.922Z,11.60
2018-04-29T00:42:52.872Z,11.66
2018-04-29T00:43:52.868Z,11.66
2018-04-29T00:44:52.863Z,11.63
2018-04-29T00:45:52.857Z,11.59
2018-04-29T00:46:52.857Z,11.62
2018-04-29T00:47:52.853Z,11.62
2018-04-29T00:48:52.845Z,11.56
2018-04-29T00:49:52.838Z,11.56
2018-04-29T00:50:52.886Z,11.53
2018-04-29T00:51:52.829Z,11.45
2018-04-29T00:52:52.827Z,11.54
2018-04-29T00:53:52.824Z,11.48
2018-04-29T00:54:52.815Z,11.45
2018-04-29T00:55:52.809Z,11.26
2018-04-29T00:56:52.804Z,11.33
2018-04-29T00:57:52.800Z,11.24
2018-04-29T00:58:52.794Z,11.24
2018-04-29T00:59:52.789Z,11.24
2018-04-29T01:00:52.785Z,11.17
2018-04-29T01:01:52.779Z,11.17
2018-04-29T01:02:52.774Z,11.21
2018-04-29T01:03:52.769Z,11.09
2018-04-29T01:04:52.768Z,11.20
2018-04-29T01:05:52.790Z,11.19
2018-04-29T01:06:52.758Z,11.20
2018-04-29T01:07:52.756Z,11.09
2018-04-29T01:08:52.742Z,11.06
2018-04-29T01:09:52.737Z,11.09
2018-04-29T01:10:52.732Z,11.06
2018-04-29T01:11:52.728Z,11.11
2018-04-29T01:12:52.724Z,11.05
2018-04-29T01:13:52.717Z,10.95
2018-04-29T01:14:52.712Z,10.86
2018-04-29T01:15:52.707Z,10.83
2018-04-29T01:16:52.701Z,10.80
2018-04-29T01:17:52.696Z,10.83
2018-04-29T01:18:52.695Z,10.83
2018-04-29T01:19:52.690Z,10.80
2018-04-29T01:20:52.680Z,10.83
2018-04-29T01:21:52.674Z,10.76
2018-04-29T01:22:52.671Z,10.81
2018-04-29T01:23:52.667Z,10.70
2018-04-29T01:24:52.664Z,10.70
2018-04-29T01:25:52.658Z,10.69
2018-04-29T01:26:52.649Z,10.69
2018-04-29T01:27:52.643Z,10.66
2018-04-29T01:28:52.642Z,10.72
2018-04-29T01:29:52.633Z,10.87
2018-04-29T01:30:52.627Z,10.84
2018-04-29T01:31:52.626Z,10.88
2018-04-29T01:32:52.615Z,10.87
2018-04-29T01:33:52.611Z,10.90
2018-04-29T01:34:52.605Z,10.90
2018-04-29T01:35:52.601Z,10.83
2018-04-29T01:36:52.597Z,10.98
2018-04-29T01:37:52.593Z,10.90
2018-04-29T01:38:52.584Z,10.80
2018-04-29T01:39:52.578Z,10.87
2018-04-29T01:40:52.572Z,10.65
2018-04-29T01:41:52.567Z,10.66
2018-04-29T01:42:52.561Z,10.52
2018-04-29T01:43:52.555Z,10.47
2018-04-29T01:44:52.555Z,10.32
2018-04-29T01:45:52.549Z,10.38
2018-04-29T01:46:52.539Z,10.38
2018-04-29T01:47:52.533Z,10.28
2018-04-29T01:48:52.532Z,10.25
2018-04-29T01:49:52.527Z,10.26
2018-04-29T01:50:52.516Z,10.25
2018-04-29T01:51:52.512Z,10.20
2018-04-29T01:52:52.505Z,10.26
2018-04-29T01:53:52.501Z,10.28
2018-04-29T01:54:52.495Z,10.22
2018-04-29T01:55:52.489Z,10.18
2018-04-29T01:56:52.488Z,10.18
2018-04-29T01:57:52.480Z,10.17
2018-04-29T01:58:52.476Z,10.20
2018-04-29T01:59:52.472Z,10.25
2018-04-29T02:00:52.459Z,10.11
2018-04-29T02:01:52.454Z,10.24
2018-04-29T02:02:52.458Z,10.24
2018-04-29T02:03:52.449Z,10.26
2018-04-29T02:04:52.437Z,10.35
2018-04-29T02:05:52.435Z,10.36
2018-04-29T02:06:52.435Z,10.29
2018-04-29T02:07:52.422Z,10.46
2018-04-29T02:08:52.414Z,10.44
2018-04-29T02:09:52.409Z,10.47
2018-04-29T02:10:52.403Z,10.49
2018-04-29T02:11:52.397Z,10.49
2018-04-29T02:12:52.391Z,10.57
2018-04-29T02:13:52.387Z,10.55
2018-04-29T02:14:52.380Z,10.58
2018-04-29T02:15:52.374Z,10.70
2018-04-29T02:16:52.372Z,10.73
2018-04-29T02:17:52.366Z,10.80
2018-04-29T02:18:52.356Z,10.86
2018-04-29T02:19:52.351Z,10.93
2018-04-29T02:20:52.349Z,10.95
2018-04-29T02:21:52.343Z,11.05
2018-04-29T02:22:52.334Z,11.01
2018-04-29T02:23:52.328Z,11.08
2018-04-29T02:24:52.321Z,10.94
2018-04-29T02:25:52.316Z,10.98
2018-04-29T02:26:52.310Z,10.99
2018-04-29T02:27:52.304Z,11.05
2018-04-29T02:28:52.298Z,10.99
2018-04-29T02:29:52.292Z,11.02
2018-04-29T02:30:52.290Z,11.03
2018-04-29T02:31:52.286Z,10.91
2018-04-29T02:32:52.274Z,10.91
2018-04-29T02:33:52.270Z,10.87
2018-04-29T02:34:52.269Z,10.86
2018-04-29T02:35:52.262Z,10.83
2018-04-29T02:36:52.251Z,10.80
2018-04-29T02:37:52.246Z,10.80
2018-04-29T02:38:52.240Z,10.80
2018-04-29T02:39:52.235Z,10.80
2018-04-29T02:40:52.227Z,10.75
2018-04-29T02:41:52.221Z,10.69
2018-04-29T02:42:52.224Z,10.69
2018-04-29T02:43:52.215Z,10.80
2018-04-29T02:44:52.203Z,10.73
2018-04-29T02:45:52.224Z,10.81
2018-04-29T02:46:52.192Z,10.78
2018-04-29T02:47:52.187Z,10.68
2018-04-29T02:48:52.181Z,10.66
2018-04-29T02:49:52.174Z,10.69
2018-04-29T02:50:52.173Z,10.68
2018-04-29T02:51:52.168Z,10.66
2018-04-29T02:52:52.155Z,10.49
2018-04-29T02:53:52.151Z,10.43
2018-04-29T02:54:52.148Z,10.34
2018-04-29T02:55:52.143Z,10.20
2018-04-29T02:56:52.131Z,10.13
2018-04-29T02:57:52.126Z,10.09
2018-04-29T02:58:52.121Z,10.06
2018-04-29T02:59:52.114Z,10.13
2018-04-29T03:00:52.112Z,10.01
2018-04-29T03:01:52.106Z,9.99
2018-04-29T03:02:52.096Z,9.98
2018-04-29T03:03:52.093Z,9.92
2018-04-29T03:04:52.084Z,9.91
2018-04-29T03:05:52.081Z,9.85
2018-04-29T03:06:52.071Z,9.77
2018-04-29T03:07:52.067Z,9.74
2018-04-29T03:08:52.059Z,9.75
2018-04-29T03:09:52.054Z,9.75
2018-04-29T03:10:52.046Z,9.68
2018-04-29T03:11:52.041Z,9.70
2018-04-29T03:12:52.039Z,9.74
2018-04-29T03:13:52.033Z,9.62
2018-04-29T03:14:52.030Z,9.65
2018-04-29T03:15:52.020Z,9.67
2018-04-29T03:16:52.015Z,9.68
2018-04-29T03:17:52.003Z,9.65
2018-04-29T03:18:51.997Z,9.62
2018-04-29T03:19:51.991Z,9.67
2018-04-29T03:20:51.984Z,9.68
2018-04-29T03:21:51.979Z,9.65
2018-04-29T03:22:51.973Z,9.62
2018-04-29T03:23:51.966Z,9.71
2018-04-29T03:24:51.959Z,9.70
2018-04-29T03:25:51.953Z,9.74
2018-04-29T03:26:51.951Z,9.74
2018-04-29T03:27:51.946Z,9.74
2018-04-29T03:28:51.934Z,9.81
2018-04-29T03:29:51.927Z,9.92
2018-04-29T03:30:51.923Z,9.89
2018-04-29T03:31:51.917Z,9.95
2018-04-29T03:32:51.913Z,10.09
2018-04-29T03:33:51.906Z,10.09
2018-04-29T03:34:51.897Z,10.09
2018-04-29T03:35:51.890Z,10.10
2018-04-29T03:36:51.885Z,10.17
2018-04-29T03:37:51.878Z,10.18
2018-04-29T03:38:51.872Z,10.20
2018-04-29T03:39:51.865Z,10.16
2018-04-29T03:40:51.858Z,10.13
2018-04-29T03:41:51.852Z,10.24
2018-04-29T03:42:51.902Z,10.24
2018-04-29T03:43:51.840Z,10.25
2018-04-29T03:44:51.836Z,10.20
2018-04-29T03:45:51.832Z,10.24
2018-04-29T03:46:51.820Z,10.28
2018-04-29T03:47:51.814Z,10.20
2018-04-29T03:48:51.807Z,10.20
2018-04-29T03:49:51.801Z,10.26
2018-04-29T03:50:51.794Z,10.24
2018-04-29T03:51:51.788Z,10.31
2018-04-29T03:52:51.786Z,10.24
2018-04-29T03:53:51.779Z,10.32
2018-04-29T03:54:51.770Z,10.25
2018-04-29T03:55:51.766Z,10.35
2018-04-29T03:56:51.761Z,10.29
2018-04-29T03:57:51.756Z,10.36
2018-04-29T03:58:51.743Z,10.34
2018-04-29T03:59:51.737Z,10.36
2018-04-29T04:00:51.731Z,10.34
2018-04-29T04:01:51.745Z,10.38
2018-04-29T04:02:51.740Z,10.36
2018-04-29T04:03:51.712Z,10.35
2018-04-29T04:04:51.705Z,10.39
2018-04-29T04:05:51.699Z,10.39
2018-04-29T04:06:51.697Z,10.52
2018-04-29T04:07:51.699Z,10.38
2018-04-29T04:08:51.680Z,10.43
2018-04-29T04:09:51.727Z,10.32
2018-04-29T04:10:51.672Z,10.44
2018-04-29T04:11:51.667Z,10.49
2018-04-29T04:12:51.656Z,10.44
2018-04-29T04:13:51.649Z,10.42
2018-04-29T04:14:51.645Z,10.49
2018-04-29T04:15:51.641Z,10.46
2018-04-29T04:16:51.631Z,10.55
2018-04-29T04:17:51.626Z,10.52
2018-04-29T04:18:51.623Z,10.65
2018-04-29T04:19:51.613Z,10.70
2018-04-29T04:20:51.606Z,10.66
2018-04-29T04:21:51.601Z,10.70
2018-04-29T04:22:51.595Z,10.84
2018-04-29T04:23:51.589Z,10.86
2018-04-29T04:24:51.586Z,10.81
2018-04-29T04:25:51.582Z,10.86
2018-04-29T04:26:51.570Z,10.90
2018-04-29T04:27:51.564Z,10.84
2018-04-29T04:28:51.562Z,10.90
2018-04-29T04:29:51.556Z,10.91
2018-04-29T04:30:51.546Z,10.90
2018-04-29T04:31:51.541Z,10.93
2018-04-29T04:32:51.533Z,11.05
2018-04-29T04:33:51.529Z,11.02
2018-04-29T04:34:51.523Z,10.99
2018-04-29T04:35:51.516Z,10.99
2018-04-29T04:36:51.510Z,11.08
2018-04-29T04:37:51.505Z,11.08
2018-04-29T04:38:51.503Z,11.03
2018-04-29T04:39:51.497Z,11.09
2018-04-29T04:40:51.486Z,11.11
2018-04-29T04:41:51.481Z,11.17
2018-04-29T04:42:51.480Z,11.08
2018-04-29T04:43:51.474Z,11.09
2018-04-29T04:44:51.462Z,11.16
2018-04-29T04:45:51.455Z,11.23
2018-04-29T04:46:51.451Z,11.33
2018-04-29T04:47:51.445Z,11.54
2018-04-29T04:48:51.439Z,11.79
2018-04-29T04:49:51.434Z,12.05
2018-04-29T04:50:51.433Z,12.26
2018-04-29T04:51:51.427Z,12.54
2018-04-29T04:52:51.416Z,12.79
2018-04-29T04:53:51.412Z,13.13
2018-04-29T04:54:51.406Z,13.41
2018-04-29T04:55:51.404Z,13.66
2018-04-29T04:56:51.396Z,14.06
2018-04-29T04:57:51.390Z,14.24
2018-04-29T04:58:51.385Z,14.46
2018-04-29T04:59:51.383Z,14.56
2018-04-29T05:00:51.378Z,14.98
2018-04-29T05:01:51.372Z,15.33
2018-04-29T05:02:51.372Z,15.67
2018-04-29T05:03:51.368Z,15.86
2018-04-29T05:04:51.360Z,16.06
2018-04-29T05:05:51.356Z,16.06
2018-04-29T05:06:51.352Z,16.10
2018-04-29T05:07:51.349Z,16.30
2018-04-29T05:08:51.349Z,16.52
2018-04-29T05:09:51.346Z,16.42
2018-04-29T05:10:51.339Z,16.44
2018-04-29T05:11:51.337Z,16.33
2018-04-29T05:12:51.333Z,16.27
2018-04-29T05:13:51.331Z,15.70
2018-04-29T05:14:51.329Z,15.48
2018-04-29T05:15:51.327Z,15.22
2018-04-29T05:16:51.324Z,14.69
2018-04-29T05:17:51.322Z,14.49
2018-04-29T05:18:51.318Z,14.16
2018-04-29T05:19:51.316Z,14.06
2018-04-29T05:20:51.317Z,14.05
2018-04-29T05:21:51.315Z,13.98
2018-04-29T05:22:51.313Z,13.88
2018-04-29T05:23:51.310Z,13.81
2018-04-29T05:24:51.302Z,13.65
2018-04-29T05:25:51.301Z,13.63
2018-04-29T05:26:51.298Z,13.53
2018-04-29T05:27:51.295Z,13.38
2018-04-29T05:28:51.291Z,13.38
2018-04-29T05:29:51.292Z,13.28
2018-04-29T05:30:51.286Z,13.32
2018-04-29T05:31:51.283Z,13.17
2018-04-29T05:32:51.283Z,13.17
2018-04-29T05:33:51.277Z,13.12
2018-04-29T05:34:51.278Z,13.09
2018-04-29T05:35:51.275Z,13.10
2018-04-29T05:36:51.267Z,13.14
2018-04-29T05:37:51.263Z,13.14
2018-04-29T05:38:51.260Z,13.09
2018-04-29T05:39:51.257Z,13.09
2018-04-29T05:40:51.257Z,13.07
2018-04-29T05:41:51.256Z,13.07
2018-04-29T05:42:51.246Z,13.09
2018-04-29T05:43:51.243Z,13.09
2018-04-29T05:44:51.238Z,13.04
2018-04-29T05:45:51.235Z,13.07
2018-04-29T05:46:51.233Z,13.07
2018-04-29T05:47:51.229Z,13.07
2018-04-29T05:48:51.223Z,13.07
2018-04-29T05:49:51.242Z,13.07
2018-04-29T05:50:51.218Z,13.07
2018-04-29T05:51:51.214Z,13.12
2018-04-29T05:52:51.213Z,13.09
2018-04-29T05:53:51.210Z,13.13
2018-04-29T05:54:51.203Z,13.21
2018-04-29T05:55:51.200Z,13.13
2018-04-29T05:56:51.195Z,13.14
2018-04-29T05:57:51.191Z,13.24
2018-04-29T05:58:51.188Z,13.35
2018-04-29T05:59:51.184Z,13.27
2018-04-29T06:00:51.183Z,13.41
2018-04-29T06:01:51.180Z,13.50
2018-04-29T06:02:51.235Z,13.59
2018-04-29T06:03:51.174Z,13.62
2018-04-29T06:04:51.170Z,13.93
2018-04-29T06:05:51.166Z,13.98
2018-04-29T06:06:51.159Z,14.11
2018-04-29T06:07:51.156Z,14.11
2018-04-29T06:08:51.151Z,14.24
2018-04-29T06:09:51.148Z,14.86
2018-04-29T06:10:51.147Z,15.20
2018-04-29T06:11:51.142Z,15.64
2018-04-29T06:12:51.138Z,15.53
2018-04-29T06:13:51.136Z,15.52
2018-04-29T06:14:51.138Z,15.64
2018-04-29T06:15:51.135Z,15.67
2018-04-29T06:16:51.127Z,15.55
2018-04-29T06:17:51.134Z,15.35
2018-04-29T06:18:51.127Z,15.27
2018-04-29T06:19:51.125Z,15.01
2018-04-29T06:20:51.118Z,14.91
2018-04-29T06:21:51.120Z,14.80
2018-04-29T06:22:51.114Z,14.80
2018-04-29T06:23:51.111Z,14.72
2018-04-29T06:24:51.108Z,14.71
2018-04-29T06:25:51.108Z,14.60
2018-04-29T06:26:51.107Z,14.61
2018-04-29T06:27:51.102Z,14.60
2018-04-29T06:28:51.098Z,14.53
2018-04-29T06:29:51.096Z,14.41
2018-04-29T06:30:51.095Z,14.42
2018-04-29T06:31:51.166Z,14.34
2018-04-29T06:32:51.093Z,14.35
2018-04-29T06:33:51.090Z,14.49
2018-04-29T06:34:51.083Z,14.60
2018-04-29T06:35:51.080Z,14.63
2018-04-29T06:36:51.082Z,14.71
2018-04-29T06:37:51.080Z,14.93
2018-04-29T06:38:51.139Z,15.12
2018-04-29T06:39:51.070Z,15.16
2018-04-29T06:40:51.066Z,15.18
2018-04-29T06:41:51.064Z,15.16
2018-04-29T06:42:51.062Z,15.03
2018-04-29T06:43:51.059Z,14.94
2018-04-29T06:44:51.061Z,14.91
2018-04-29T06:45:51.055Z,14.91
2018-04-29T06:46:51.079Z,14.98
2018-04-29T06:47:51.054Z,14.94
2018-04-29T06:48:51.046Z,14.90
2018-04-29T06:49:51.045Z,14.86
2018-04-29T06:50:51.045Z,14.74
2018-04-29T06:51:51.043Z,14.72
2018-04-29T06:52:51.035Z,14.63
2018-04-29T06:53:51.037Z,14.63
2018-04-29T06:54:51.030Z,14.56
2018-04-29T06:55:51.031Z,14.54
2018-04-29T06:56:51.026Z,14.54
2018-04-29T06:57:51.023Z,14.54
2018-04-29T06:58:51.025Z,14.46
2018-04-29T06:59:51.023Z,14.45
2018-04-29T07:00:51.086Z,14.39
2018-04-29T07:01:51.012Z,14.31
2018-04-29T07:02:51.011Z,14.29
2018-04-29T07:03:51.007Z,14.21
2018-04-29T07:04:51.007Z,14.16
2018-04-29T07:05:51.001Z,14.12
2018-04-29T07:06:50.998Z,14.12
2018-04-29T07:07:51.002Z,14.12
2018-04-29T07:08:50.993Z,14.02
2018-04-29T07:09:50.995Z,14.12
2018-04-29T07:10:50.991Z,14.02
2018-04-29T07:11:50.989Z,14.05
2018-04-29T07:12:50.981Z,14.02
2018-04-29T07:13:50.978Z,14.04
2018-04-29T07:14:50.975Z,14.06
2018-04-29T07:15:50.973Z,14.05
2018-04-29T07:16:50.973Z,13.96
2018-04-29T07:17:50.971Z,14.01
2018-04-29T07:18:50.965Z,14.05
2018-04-29T07:19:51.013Z,14.11
2018-04-29T07:20:50.957Z,14.08
2018-04-29T07:21:50.954Z,14.11
2018-04-29T07:22:50.951Z,13.98
2018-04-29T07:23:50.948Z,13.96
2018-04-29T07:24:50.945Z,13.96
2018-04-29T07:25:50.941Z,13.94
2018-04-29T07:26:50.940Z,13.91
2018-04-29T07:27:50.934Z,13.93
2018-04-29T07:28:50.935Z,13.96
2018-04-29T07:29:50.932Z,13.96
2018-04-29T07:30:50.929Z,13.91
2018-04-29T07:31:50.927Z,13.98
2018-04-29T07:32:50.918Z,13.94
2018-04-29T07:33:50.915Z,13.94
2018-04-29T07:34:50.916Z,14.01
2018-04-29T07:35:50.909Z,14.04
2018-04-29T07:36:50.905Z,14.11
2018-04-29T07:37:50.979Z,14.17
2018-04-29T07:38:50.900Z,14.20
2018-04-29T07:39:50.973Z,14.27
2018-04-29T07:40:50.893Z,14.29
2018-04-29T07:41:50.889Z,14.39
2018-04-29T07:42:50.891Z,14.46
2018-04-29T07:43:50.889Z,14.57
2018-04-29T07:44:50.880Z,14.72
2018-04-29T07:45:50.876Z,14.91
2018-04-29T07:46:50.874Z,15.16
2018-04-29T07:47:50.873Z,15.37
2018-04-29T07:48:50.872Z,15.60
2018-04-29T07:49:50.870Z,15.89
2018-04-29T07:50:50.863Z,16.23
2018-04-29T07:51:50.863Z,16.42
2018-04-29T07:52:50.860Z,16.81
2018-04-29T07:53:50.856Z,17.14
2018-04-29T07:54:50.903Z,17.20
2018-04-29T07:55:50.853Z,17.17
2018-04-29T07:56:50.852Z,17.17
2018-04-29T07:57:50.850Z,17.06
2018-04-29T07:58:50.849Z,17.07
2018-04-29T07:59:50.847Z,16.85
2018-04-29T08:00:50.876Z,16.81
2018-04-29T08:01:50.850Z,16.45
2018-04-29T08:02:50.845Z,16.01
2018-04-29T08:03:50.844Z,15.78
2018-04-29T08:04:50.842Z,15.88
2018-04-29T08:05:50.843Z,15.95
2018-04-29T08:06:50.878Z,15.81
2018-04-29T08:07:50.839Z,15.84
2018-04-29T08:08:50.842Z,15.77
2018-04-29T08:09:50.841Z,15.52
2018-04-29T08:10:50.835Z,15.51
2018-04-29T08:11:50.836Z,15.52
2018-04-29T08:12:50.837Z,15.40
2018-04-29T08:13:50.837Z,15.40
2018-04-29T08:14:50.831Z,15.46
2018-04-29T08:15:50.830Z,15.55
2018-04-29T08:16:50.828Z,15.34
2018-04-29T08:17:50.826Z,15.52
2018-04-29T08:18:50.826Z,15.67
2018-04-29T08:19:50.823Z,15.86
2018-04-29T08:20:50.820Z,16.06
2018-04-29T08:21:50.820Z,16.04
2018-04-29T08:22:50.826Z,16.14
2018-04-29T08:23:50.821Z,16.29
2018-04-29T08:24:50.815Z,16.22
2018-04-29T08:25:50.813Z,16.41
2018-04-29T08:26:50.817Z,16.45
2018-04-29T08:27:50.815Z,16.47
2018-04-29T08:28:50.809Z,16.60
2018-04-29T08:29:50.808Z,16.77
2018-04-29T08:30:50.807Z,16.81
2018-04-29T08:31:50.805Z,16.90
2018-04-29T08:32:50.804Z,16.91
2018-04-29T08:33:50.803Z,16.82
2018-04-29T08:34:50.803Z,16.75
2018-04-29T08:35:50.802Z,16.77
2018-04-29T08:36:50.799Z,16.78
2018-04-29T08:37:50.800Z,16.84
2018-04-29T08:38:50.797Z,16.84
2018-04-29T08:39:50.797Z,16.80
2018-04-29T08:40:50.799Z,16.77
2018-04-29T08:41:50.810Z,16.78
2018-04-29T08:42:50.793Z,16.66
2018-04-29T08:43:50.793Z,16.37
2018-04-29T08:44:50.796Z,16.29
2018-04-29T08:45:50.795Z,16.01
2018-04-29T08:46:50.789Z,15.85
2018-04-29T08:47:50.788Z,15.77
2018-04-29T08:48:50.787Z,15.67
2018-04-29T08:49:50.787Z,15.55
2018-04-29T08:50:50.784Z,15.55
2018-04-29T08:51:50.783Z,15.53
2018-04-29T08:52:50.781Z,15.37
2018-04-29T08:53:50.781Z,15.09
2018-04-29T08:54:50.836Z,14.90
2018-04-29T08:55:50.781Z,14.72
2018-04-29T08:56:50.774Z,14.60
2018-04-29T08:57:50.776Z,14.72
2018-04-29T08:58:50.779Z,14.75
2018-04-29T08:59:50.773Z,14.86
2018-04-29T09:00:50.766Z,14.90
2018-04-29T09:01:50.765Z,15.18
2018-04-29T09:02:50.763Z,15.33
2018-04-29T09:03:50.858Z,15.51
2018-04-29T09:04:50.762Z,15.64
2018-04-29T09:05:50.764Z,15.89
2018-04-29T09:06:50.755Z,16.06
2018-04-29T09:07:50.753Z,16.26
2018-04-29T09:08:50.750Z,16.32
2018-04-29T09:09:50.748Z,16.42
2018-04-29T09:10:50.746Z,16.47
2018-04-29T09:11:50.746Z,16.50
2018-04-29T09:12:50.747Z,16.75
2018-04-29T09:13:50.746Z,17.05
2018-04-29T09:14:50.740Z,17.42
2018-04-29T09:15:50.740Z,17.38
2018-04-29T09:16:50.815Z,17.42
2018-04-29T09:17:50.742Z,17.54
2018-04-29T09:18:50.736Z,17.70
2018-04-29T09:19:50.736Z,17.95
2018-04-29T09:20:50.735Z,18.05
2018-04-29T09:21:50.735Z,17.60
2018-04-29T09:22:50.736Z,17.74
2018-04-29T09:23:50.736Z,17.89
2018-04-29T09:24:50.737Z,18.07
2018-04-29T09:25:50.737Z,18.32
2018-04-29T09:26:50.737Z,18.86
2018-04-29T09:27:50.739Z,19.61
2018-04-29T09:28:50.733Z,20.23
2018-04-29T09:29:50.735Z,20.69
2018-04-29T09:30:50.740Z,21.91
2018-04-29T09:31:50.741Z,22.12
2018-04-29T09:32:50.738Z,23.00
2018-04-29T09:33:50.740Z,23.90
2018-04-29T09:34:50.743Z,24.14
2018-04-29T09:35:50.747Z,23.86
2018-04-29T09:36:50.754Z,24.02
2018-04-29T09:37:50.755Z,24.71
2018-04-29T09:38:50.760Z,24.53
2018-04-29T09:39:50.765Z,24.55
2018-04-29T09:40:50.771Z,25.04
2018-04-29T09:41:50.777Z,24.46
2018-04-29T09:42:50.784Z,25.14
2018-04-29T09:43:50.791Z,24.64
2018-04-29T09:44:50.802Z,25.22
2018-04-29T09:45:50.811Z,25.31
2018-04-29T09:46:50.814Z,25.04
2018-04-29T09:47:50.821Z,24.89
2018-04-29T09:48:50.834Z,24.56
2018-04-29T09:49:50.841Z,24.02
2018-04-29T09:50:50.846Z,23.60
2018-04-29T09:51:50.855Z,23.26
2018-04-29T09:52:50.862Z,22.96
2018-04-29T09:53:50.871Z,22.96
2018-04-29T09:54:50.879Z,22.64
2018-04-29T09:55:50.886Z,22.78
2018-04-29T09:56:50.893Z,22.57
2018-04-29T09:57:50.902Z,22.44
2018-04-29T09:58:50.913Z,22.29
2018-04-29T09:59:50.920Z,22.19
2018-04-29T10:00:50.951Z,22.08
2018-04-29T10:01:50.931Z,21.68
2018-04-29T10:02:50.941Z,21.42
2018-04-29T10:03:50.948Z,21.34
2018-04-29T10:04:50.950Z,21.31
2018-04-29T10:05:50.956Z,20.94
2018-04-29T10:06:50.962Z,20.71
2018-04-29T10:07:50.969Z,20.78
2018-04-29T10:08:50.973Z,20.93
2018-04-29T10:09:50.979Z,21.21
2018-04-29T10:10:50.991Z,21.68
2018-04-29T10:11:50.996Z,22.36
2018-04-29T10:12:50.999Z,23.06
2018-04-29T10:13:51.001Z,23.41
2018-04-29T10:14:51.008Z,23.25
2018-04-29T10:15:51.013Z,22.78
2018-04-29T10:16:51.017Z,23.82
2018-04-29T10:17:51.024Z,24.39
2018-04-29T10:18:51.084Z,25.16
2018-04-29T10:19:51.035Z,25.27
2018-04-29T10:20:51.041Z,25.93
2018-04-29T10:21:51.048Z,26.76
2018-04-29T10:22:51.060Z,26.93
2018-04-29T10:23:51.066Z,26.97
2018-04-29T10:24:51.068Z,26.59
2018-04-29T10:25:51.076Z,26.12
2018-04-29T10:26:51.085Z,26.66
2018-04-29T10:27:51.095Z,25.94
2018-04-29T10:28:51.104Z,25.69
2018-04-29T10:29:51.113Z,25.63
2018-04-29T10:30:51.117Z,25.76
2018-04-29T10:31:51.127Z,25.83
2018-04-29T10:32:51.237Z,24.63
2018-04-29T10:33:51.143Z,24.49
2018-04-29T10:34:51.152Z,24.46
2018-04-29T10:35:51.160Z,23.41
2018-04-29T10:36:51.168Z,22.29
2018-04-29T10:37:51.178Z,21.86
2018-04-29T10:38:51.184Z,21.82
2018-04-29T10:39:51.193Z,21.71
2018-04-29T10:40:51.203Z,21.67
2018-04-29T10:41:51.212Z,21.86
2018-04-29T10:42:51.220Z,22.15
2018-04-29T10:43:51.226Z,22.44
2018-04-29T10:44:51.227Z,22.60
2018-04-29T10:45:51.235Z,22.31
2018-04-29T10:46:51.246Z,22.09
2018-04-29T10:47:51.248Z,21.91
2018-04-29T10:48:51.253Z,22.14
2018-04-29T10:49:51.260Z,22.33
2018-04-29T10:50:51.266Z,22.57
2018-04-29T10:51:51.280Z,22.66
2018-04-29T10:52:51.278Z,22.78
2018-04-29T10:53:51.283Z,22.97
2018-04-29T10:54:51.293Z,23.14
2018-04-29T10:55:51.298Z,22.85
2018-04-29T10:56:51.298Z,22.94
2018-04-29T10:57:51.304Z,23.12
2018-04-29T10:58:51.357Z,22.91
2018-04-29T10:59:51.316Z,22.86
2018-04-29T11:00:51.326Z,23.03
2018-04-29T11:01:51.331Z,23.16
2018-04-29T11:02:51.335Z,22.79
2018-04-29T11:03:51.337Z,22.72
2018-04-29T11:04:51.343Z,22.60
2018-04-29T11:05:51.352Z,21.61
2018-04-29T11:06:51.352Z,21.53
2018-04-29T11:07:51.357Z,21.66
2018-04-29T11:08:51.361Z,21.99
2018-04-29T11:09:51.371Z,22.27
2018-04-29T11:10:51.371Z,22.23
2018-04-29T11:11:51.473Z,21.96
2018-04-29T11:12:51.385Z,21.82
2018-04-29T11:13:51.390Z,21.42
2018-04-29T11:14:51.392Z,21.49
2018-04-29T11:15:51.397Z,21.70
2018-04-29T11:16:51.399Z,21.86
2018-04-29T11:17:51.408Z,22.15
2018-04-29T11:18:51.408Z,22.24
2018-04-29T11:19:51.413Z,22.26
2018-04-29T11:20:51.422Z,22.36
2018-04-29T11:21:51.426Z,22.35
2018-04-29T11:22:51.426Z,22.30
2018-04-29T11:23:51.431Z,22.36
2018-04-29T11:24:51.438Z,22.38
2018-04-29T11:25:51.444Z,22.49
2018-04-29T11:26:51.443Z,22.61
2018-04-29T11:27:51.449Z,22.59
2018-04-29T11:28:51.452Z,21.99
2018-04-29T11:29:51.456Z,21.85
2018-04-29T11:30:51.460Z,21.75
2018-04-29T11:31:51.465Z,21.89
2018-04-29T11:32:51.468Z,21.96
2018-04-29T11:33:51.527Z,21.73
2018-04-29T11:34:51.480Z,21.73
2018-04-29T11:35:51.484Z,21.77
2018-04-29T11:36:51.485Z,21.83
2018-04-29T11:37:51.487Z,21.83
2018-04-29T11:38:51.495Z,21.83
2018-04-29T11:39:51.507Z,22.01
2018-04-29T11:40:51.499Z,21.98
2018-04-29T11:41:51.504Z,21.74
2018-04-29T11:42:51.506Z,21.42
2018-04-29T11:43:51.511Z,21.27
2018-04-29T11:44:51.517Z,21.13
2018-04-29T11:45:51.640Z,21.31
2018-04-29T11:46:51.521Z,21.12
2018-04-29T11:47:51.523Z,21.13
2018-04-29T11:48:51.526Z,21.31
2018-04-29T11:49:51.529Z,21.06
2018-04-29T11:50:51.533Z,21.26
2018-04-29T11:51:51.535Z,21.18
2018-04-29T11:52:51.543Z,21.30
2018-04-29T11:53:51.549Z,21.30
2018-04-29T11:54:51.544Z,21.30
2018-04-29T11:55:51.547Z,21.51
2018-04-29T11:56:51.553Z,21.94
2018-04-29T11:57:51.557Z,22.17
2018-04-29T11:58:51.557Z,22.21
2018-04-29T11:59:51.561Z,22.46
2018-04-29T12:00:51.565Z,22.59
2018-04-29T12:01:51.642Z,22.78
2018-04-29T12:02:51.568Z,22.85
2018-04-29T12:03:51.572Z,22.64
2018-04-29T12:04:51.574Z,22.57
2018-04-29T12:05:51.578Z,22.33
2018-04-29T12:06:51.586Z,22.49
2018-04-29T12:07:51.590Z,22.79
2018-04-29T12:08:51.588Z,23.16
2018-04-29T12:09:51.699Z,23.01
2018-04-29T12:10:51.599Z,22.99
2018-04-29T12:11:51.603Z,23.03
2018-04-29T12:12:51.602Z,22.75
2018-04-29T12:13:51.610Z,23.00
2018-04-29T12:14:51.611Z,23.14
2018-04-29T12:15:51.614Z,23.22
2018-04-29T12:16:51.617Z,23.22
2018-04-29T12:17:51.623Z,23.39
2018-04-29T12:18:51.630Z,23.49
2018-04-29T12:19:51.634Z,23.39
2018-04-29T12:20:51.632Z,23.52
2018-04-29T12:21:51.636Z,23.47
2018-04-29T12:22:51.641Z,23.75
2018-04-29T12:23:51.646Z,23.93
2018-04-29T12:24:51.649Z,23.79
2018-04-29T12:25:51.655Z,23.81
2018-04-29T12:26:51.666Z,23.25
2018-04-29T12:27:51.662Z,23.18
2018-04-29T12:28:51.670Z,23.29
2018-04-29T12:29:51.670Z,23.53
2018-04-29T12:30:51.680Z,23.68
2018-04-29T12:31:51.682Z,23.56
2018-04-29T12:32:51.681Z,23.06
2018-04-29T12:33:51.692Z,22.93
2018-04-29T12:34:51.691Z,22.91
2018-04-29T12:35:51.695Z,22.93
2018-04-29T12:36:51.702Z,22.76
2018-04-29T12:37:51.710Z,22.15
2018-04-29T12:38:51.711Z,22.09
2018-04-29T12:39:51.768Z,21.90
2018-04-29T12:40:51.715Z,21.74
2018-04-29T12:41:51.719Z,21.68
2018-04-29T12:42:51.726Z,21.56
2018-04-29T12:43:51.728Z,21.53
2018-04-29T12:44:51.730Z,21.63
2018-04-29T12:45:51.734Z,21.74
2018-04-29T12:46:51.739Z,21.90
2018-04-29T12:47:51.744Z,21.91
2018-04-29T12:48:51.748Z,21.93
2018-04-29T12:49:51.753Z,21.91
2018-04-29T12:50:51.755Z,21.83
2018-04-29T12:51:51.759Z,21.85
2018-04-29T12:52:51.760Z,21.96
2018-04-29T12:53:51.761Z,22.19